createdAt,value
2018-06-22T00:00:35.158Z,10.09
2018-06-22T00:01:35.142Z,10.02
2018-06-22T00:02:35.143Z,9.94
2018-06-22T00:03:35.116Z,10.02
2018-06-22T00:04:35.115Z,9.97
2018-06-22T00:05:35.101Z,9.91
2018-06-22T00:06:35.085Z,9.91
2018-06-22T00:07:35.090Z,9.94
2018-06-22T00:08:35.069Z,9.83
2018-06-22T00:09:35.057Z,9.81
2018-06-22T00:10:35.047Z,9.84
2018-06-22T00:11:35.038Z,9.84
2018-06-22T00:12:35.031Z,9.89
2018-06-22T00:13:35.027Z,9.83
2018-06-22T00:14:34.998Z,9.86
2018-06-22T00:15:34.986Z,9.78
2018-06-22T00:16:34.974Z,9.84
2018-06-22T00:17:34.966Z,9.78
2018-06-22T00:18:34.974Z,9.89
2018-06-22T00:19:34.949Z,9.79
2018-06-22T00:20:34.931Z,9.84
2018-06-22T00:21:34.921Z,9.72
2018-06-22T00:22:34.913Z,9.74
2018-06-22T00:23:34.906Z,9.78
2018-06-22T00:24:34.907Z,9.71
2018-06-22T00:25:34.882Z,9.68
2018-06-22T00:26:34.869Z,9.75
2018-06-22T00:27:34.856Z,9.84
2018-06-22T00:28:34.843Z,9.79
2018-06-22T00:29:34.848Z,9.81
2018-06-22T00:30:34.831Z,9.69
2018-06-22T00:31:34.820Z,9.78
2018-06-22T00:32:34.807Z,9.68
2018-06-22T00:33:34.794Z,9.66
2018-06-22T00:34:34.795Z,9.65
2018-06-22T00:35:34.767Z,9.58
2018-06-22T00:36:34.763Z,9.54
2018-06-22T00:37:34.750Z,9.50
2018-06-22T00:38:34.737Z,9.54
2018-06-22T00:39:34.740Z,9.48
2018-06-22T00:40:34.714Z,9.57
2018-06-22T00:41:34.708Z,9.57
2018-06-22T00:42:34.695Z,9.69
2018-06-22T00:43:34.689Z,9.58
2018-06-22T00:44:34.680Z,9.60
2018-06-22T00:45:34.677Z,9.78
2018-06-22T00:46:34.650Z,9.72
2018-06-22T00:47:34.643Z,9.74
2018-06-22T00:48:34.627Z,9.79
2018-06-22T00:49:34.620Z,9.81
2018-06-22T00:50:34.620Z,9.83
2018-06-22T00:51:34.601Z,9.78
2018-06-22T00:52:34.583Z,9.84
2018-06-22T00:53:34.573Z,9.83
2018-06-22T00:54:34.567Z,9.79
2018-06-22T00:55:34.572Z,9.81
2018-06-22T00:56:34.547Z,9.81
2018-06-22T00:57:34.537Z,9.79
2018-06-22T00:58:34.525Z,9.78
2018-06-22T00:59:34.507Z,9.76
2018-06-22T01:00:34.509Z,9.86
2018-06-22T01:01:34.500Z,9.89
2018-06-22T01:02:34.477Z,9.81
2018-06-22T01:03:34.475Z,9.97
2018-06-22T01:04:34.462Z,9.96
2018-06-22T01:05:34.449Z,9.90
2018-06-22T01:06:34.447Z,9.87
2018-06-22T01:07:34.421Z,9.83
2018-06-22T01:08:34.418Z,9.81
2018-06-22T01:09:34.402Z,9.91
2018-06-22T01:10:34.392Z,9.84
2018-06-22T01:11:34.379Z,9.86
2018-06-22T01:12:34.377Z,9.89
2018-06-22T01:13:34.357Z,9.84
2018-06-22T01:14:34.352Z,9.90
2018-06-22T01:15:34.341Z,9.84
2018-06-22T01:16:34.328Z,9.87
2018-06-22T01:17:34.329Z,9.87
2018-06-22T01:18:34.302Z,9.84
2018-06-22T01:19:34.294Z,9.86
2018-06-22T01:20:34.280Z,9.94
2018-06-22T01:21:34.268Z,9.96
2018-06-22T01:22:34.279Z,9.93
2018-06-22T01:23:34.253Z,10.02
2018-06-22T01:24:34.234Z,10.04
2018-06-22T01:25:34.227Z,9.94
2018-06-22T01:26:34.220Z,10.02
2018-06-22T01:27:34.211Z,10.04
2018-06-22T01:28:34.211Z,10.04
2018-06-22T01:29:34.185Z,10.05
2018-06-22T01:30:34.172Z,10.09
2018-06-22T01:31:34.163Z,10.09
2018-06-22T01:32:34.148Z,10.14
2018-06-22T01:33:34.164Z,10.11
2018-06-22T01:34:34.131Z,10.08
2018-06-22T01:35:34.122Z,10.11
2018-06-22T01:36:34.114Z,10.20
2018-06-22T01:37:34.100Z,10.25
2018-06-22T01:38:34.088Z,10.18
2018-06-22T01:39:34.086Z,10.26
2018-06-22T01:40:34.070Z,10.18
2018-06-22T01:41:34.056Z,10.20
2018-06-22T01:42:34.055Z,10.09
2018-06-22T01:43:34.029Z,10.15
2018-06-22T01:44:34.046Z,10.15
2018-06-22T01:45:34.010Z,10.22
2018-06-22T01:46:34.001Z,10.18
2018-06-22T01:47:33.993Z,10.20
2018-06-22T01:48:33.981Z,10.11
2018-06-22T01:49:33.979Z,10.12
2018-06-22T01:50:33.956Z,10.25
2018-06-22T01:51:33.942Z,10.14
2018-06-22T01:52:33.927Z,10.22
2018-06-22T01:53:33.922Z,10.18
2018-06-22T01:54:33.923Z,10.25
2018-06-22T01:55:33.905Z,10.23
2018-06-22T01:56:33.886Z,10.26
2018-06-22T01:57:33.878Z,10.30
2018-06-22T01:58:33.868Z,10.40
2018-06-22T01:59:33.877Z,10.34
2018-06-22T02:00:33.852Z,10.38
2018-06-22T02:01:33.837Z,10.38
2018-06-22T02:02:33.823Z,10.33
2018-06-22T02:03:33.808Z,10.25
2018-06-22T02:04:33.799Z,10.18
2018-06-22T02:05:33.802Z,10.25
2018-06-22T02:06:33.787Z,10.20
2018-06-22T02:07:33.777Z,10.27
2018-06-22T02:08:33.772Z,10.22
2018-06-22T02:09:33.753Z,10.26
2018-06-22T02:10:33.752Z,10.27
2018-06-22T02:11:33.721Z,10.20
2018-06-22T02:12:33.722Z,10.25
2018-06-22T02:13:33.712Z,10.34
2018-06-22T02:14:33.694Z,10.26
2018-06-22T02:15:33.681Z,10.26
2018-06-22T02:16:33.691Z,10.33
2018-06-22T02:17:33.663Z,10.27
2018-06-22T02:18:33.654Z,10.32
2018-06-22T02:19:33.643Z,10.18
2018-06-22T02:20:33.633Z,10.18
2018-06-22T02:21:33.632Z,10.23
2018-06-22T02:22:33.608Z,10.23
2018-06-22T02:23:33.598Z,10.20
2018-06-22T02:24:33.585Z,10.15
2018-06-22T02:25:33.674Z,10.23
2018-06-22T02:26:33.580Z,10.15
2018-06-22T02:27:33.556Z,10.22
2018-06-22T02:28:33.541Z,10.14
2018-06-22T02:29:33.525Z,10.15
2018-06-22T02:30:33.527Z,10.22
2018-06-22T02:31:33.528Z,10.22
2018-06-22T02:32:33.499Z,10.22
2018-06-22T02:33:33.490Z,10.27
2018-06-22T02:34:33.473Z,10.26
2018-06-22T02:35:33.463Z,10.27
2018-06-22T02:36:33.458Z,10.29
2018-06-22T02:37:33.453Z,10.30
2018-06-22T02:38:33.436Z,10.26
2018-06-22T02:39:33.424Z,10.29
2018-06-22T02:40:33.411Z,10.34
2018-06-22T02:41:33.404Z,10.34
2018-06-22T02:42:33.400Z,10.36
2018-06-22T02:43:33.376Z,10.42
2018-06-22T02:44:33.374Z,10.55
2018-06-22T02:45:33.361Z,10.47
2018-06-22T02:46:33.342Z,10.51
2018-06-22T02:47:33.348Z,10.40
2018-06-22T02:48:33.324Z,10.40
2018-06-22T02:49:33.309Z,10.47
2018-06-22T02:50:33.308Z,10.44
2018-06-22T02:51:33.294Z,10.41
2018-06-22T02:52:33.281Z,10.34
2018-06-22T02:53:33.292Z,10.33
2018-06-22T02:54:33.253Z,10.29
2018-06-22T02:55:33.251Z,10.36
2018-06-22T02:56:33.234Z,10.38
2018-06-22T02:57:33.221Z,10.30
2018-06-22T02:58:33.219Z,10.30
2018-06-22T02:59:33.218Z,10.41
2018-06-22T03:00:33.191Z,10.36
2018-06-22T03:01:33.181Z,10.38
2018-06-22T03:02:33.175Z,10.34
2018-06-22T03:03:33.161Z,10.42
2018-06-22T03:04:33.165Z,10.40
2018-06-22T03:05:33.143Z,10.38
2018-06-22T03:06:33.124Z,10.38
2018-06-22T03:07:33.114Z,10.30
2018-06-22T03:08:33.132Z,10.40
2018-06-22T03:09:33.089Z,10.33
2018-06-22T03:10:33.103Z,10.41
2018-06-22T03:11:33.075Z,10.38
2018-06-22T03:12:33.062Z,10.47
2018-06-22T03:13:33.053Z,10.41
2018-06-22T03:14:33.035Z,10.48
2018-06-22T03:15:33.028Z,10.45
2018-06-22T03:16:33.029Z,10.48
2018-06-22T03:17:33.013Z,10.40
2018-06-22T03:18:33.002Z,10.45
2018-06-22T03:19:32.987Z,10.38
2018-06-22T03:20:32.977Z,10.33
2018-06-22T03:21:32.972Z,10.33
2018-06-22T03:22:32.956Z,10.38
2018-06-22T03:23:32.943Z,10.36
2018-06-22T03:24:32.934Z,10.47
2018-06-22T03:25:32.928Z,10.41
2018-06-22T03:26:32.921Z,10.47
2018-06-22T03:27:32.898Z,10.41
2018-06-22T03:28:32.887Z,10.44
2018-06-22T03:29:32.873Z,10.41
2018-06-22T03:30:32.870Z,10.40
2018-06-22T03:31:32.861Z,10.38
2018-06-22T03:32:32.855Z,10.36
2018-06-22T03:33:32.833Z,10.41
2018-06-22T03:34:32.828Z,10.36
2018-06-22T03:35:32.813Z,10.34
2018-06-22T03:36:32.801Z,10.36
2018-06-22T03:37:32.807Z,10.34
2018-06-22T03:38:32.779Z,10.44
2018-06-22T03:39:32.797Z,10.44
2018-06-22T03:40:32.758Z,10.48
2018-06-22T03:41:32.743Z,10.40
2018-06-22T03:42:32.749Z,10.36
2018-06-22T03:43:32.726Z,10.42
2018-06-22T03:44:32.722Z,10.41
2018-06-22T03:45:32.708Z,10.45
2018-06-22T03:46:32.699Z,10.29
2018-06-22T03:47:32.699Z,10.29
2018-06-22T03:48:32.675Z,10.18
2018-06-22T03:49:32.664Z,10.12
2018-06-22T03:50:32.648Z,10.18
2018-06-22T03:51:32.637Z,10.12
2018-06-22T03:52:32.628Z,10.07
2018-06-22T03:53:32.624Z,10.15
2018-06-22T03:54:32.611Z,10.07
2018-06-22T03:55:32.635Z,10.07
2018-06-22T03:56:32.587Z,9.99
2018-06-22T03:57:32.576Z,10.01
2018-06-22T03:58:32.568Z,9.99
2018-06-22T03:59:32.550Z,9.99
2018-06-22T04:00:32.551Z,10.05
2018-06-22T04:01:32.524Z,10.09
2018-06-22T04:02:32.522Z,10.15
2018-06-22T04:03:32.525Z,10.25
2018-06-22T04:04:32.494Z,10.25
2018-06-22T04:05:32.480Z,10.25
2018-06-22T04:06:32.485Z,10.38
2018-06-22T04:07:32.465Z,10.29
2018-06-22T04:08:32.455Z,10.32
2018-06-22T04:09:32.459Z,10.25
2018-06-22T04:10:32.425Z,10.30
2018-06-22T04:11:32.421Z,10.36
2018-06-22T04:12:32.410Z,10.33
2018-06-22T04:13:32.398Z,10.34
2018-06-22T04:14:32.405Z,10.32
2018-06-22T04:15:32.378Z,10.38
2018-06-22T04:16:32.367Z,10.36
2018-06-22T04:17:32.357Z,10.40
2018-06-22T04:18:32.344Z,10.41
2018-06-22T04:19:32.335Z,10.36
2018-06-22T04:20:32.340Z,10.41
2018-06-22T04:21:32.318Z,10.41
2018-06-22T04:22:32.305Z,10.41
2018-06-22T04:23:32.288Z,10.51
2018-06-22T04:24:32.277Z,10.59
2018-06-22T04:25:32.714Z,10.63
2018-06-22T04:26:32.262Z,10.52
2018-06-22T04:27:32.247Z,10.48
2018-06-22T04:28:32.239Z,10.53
2018-06-22T04:29:32.227Z,10.59
2018-06-22T04:30:32.215Z,10.59
2018-06-22T04:31:32.218Z,10.55
2018-06-22T04:32:32.191Z,10.61
2018-06-22T04:33:32.176Z,10.79
2018-06-22T04:34:32.173Z,10.71
2018-06-22T04:35:32.161Z,10.74
2018-06-22T04:36:32.155Z,10.74
2018-06-22T04:37:32.151Z,10.73
2018-06-22T04:38:32.146Z,10.82
2018-06-22T04:39:32.119Z,10.89
2018-06-22T04:40:32.111Z,10.94
2018-06-22T04:41:32.097Z,10.97
2018-06-22T04:42:32.079Z,11.00
2018-06-22T04:43:32.084Z,11.03
2018-06-22T04:44:32.059Z,11.03
2018-06-22T04:45:32.045Z,11.04
2018-06-22T04:46:32.041Z,11.00
2018-06-22T04:47:32.033Z,11.04
2018-06-22T04:48:32.028Z,11.15
2018-06-22T04:49:32.007Z,11.14
2018-06-22T04:50:31.991Z,11.18
2018-06-22T04:51:31.983Z,11.29
2018-06-22T04:52:31.977Z,11.36
2018-06-22T04:53:31.984Z,11.42
2018-06-22T04:54:31.946Z,11.46
2018-06-22T04:55:31.938Z,11.42
2018-06-22T04:56:31.928Z,11.43
2018-06-22T04:57:31.919Z,11.46
2018-06-22T04:58:31.912Z,11.54
2018-06-22T04:59:31.912Z,11.49
2018-06-22T05:00:31.886Z,11.58
2018-06-22T05:01:31.877Z,11.52
2018-06-22T05:02:31.858Z,11.70
2018-06-22T05:03:31.884Z,11.73
2018-06-22T05:04:31.837Z,11.70
2018-06-22T05:05:31.838Z,11.61
2018-06-22T05:06:31.821Z,11.72
2018-06-22T05:07:31.810Z,11.72
2018-06-22T05:08:31.795Z,11.70
2018-06-22T05:09:31.780Z,11.76
2018-06-22T05:10:31.791Z,11.94
2018-06-22T05:11:31.767Z,12.02
2018-06-22T05:12:31.753Z,12.10
2018-06-22T05:13:31.747Z,12.05
2018-06-22T05:14:31.729Z,12.04
2018-06-22T05:15:31.734Z,12.02
2018-06-22T05:16:31.711Z,12.05
2018-06-22T05:17:31.699Z,12.12
2018-06-22T05:18:31.694Z,12.27
2018-06-22T05:19:31.678Z,12.34
2018-06-22T05:20:31.668Z,12.29
2018-06-22T05:21:31.683Z,12.24
2018-06-22T05:22:31.695Z,12.10
2018-06-22T05:23:31.632Z,12.14
2018-06-22T05:24:31.623Z,12.17
2018-06-22T05:25:31.615Z,12.17
2018-06-22T05:26:31.612Z,12.24
2018-06-22T05:27:31.589Z,12.34
2018-06-22T05:28:31.579Z,12.17
2018-06-22T05:29:31.565Z,12.23
2018-06-22T05:30:31.559Z,12.14
2018-06-22T05:31:31.548Z,12.10
2018-06-22T05:32:31.551Z,12.05
2018-06-22T05:33:31.526Z,12.04
2018-06-22T05:34:31.517Z,12.16
2018-06-22T05:35:31.499Z,12.31
2018-06-22T05:36:31.491Z,12.35
2018-06-22T05:37:31.492Z,12.47
2018-06-22T05:38:31.478Z,12.45
2018-06-22T05:39:31.454Z,12.52
2018-06-22T05:40:31.446Z,12.45
2018-06-22T05:41:31.474Z,12.49
2018-06-22T05:42:31.423Z,12.42
2018-06-22T05:43:31.423Z,12.49
2018-06-22T05:44:31.403Z,12.45
2018-06-22T05:45:31.391Z,12.42
2018-06-22T05:46:31.387Z,12.52
2018-06-22T05:47:31.363Z,12.39
2018-06-22T05:48:31.381Z,12.38
2018-06-22T05:49:31.347Z,12.38
2018-06-22T05:50:31.334Z,12.47
2018-06-22T05:51:31.321Z,12.32
2018-06-22T05:52:31.312Z,12.47
2018-06-22T05:53:31.324Z,12.50
2018-06-22T05:54:31.283Z,12.49
2018-06-22T05:55:31.275Z,12.41
2018-06-22T05:56:31.355Z,12.37
2018-06-22T05:57:31.259Z,12.41
2018-06-22T05:58:31.242Z,12.41
2018-06-22T05:59:31.241Z,12.49
2018-06-22T06:00:31.221Z,12.37
2018-06-22T06:01:31.205Z,12.47
2018-06-22T06:02:31.204Z,12.42
2018-06-22T06:03:31.256Z,12.53
2018-06-22T06:04:31.199Z,12.45
2018-06-22T06:05:31.170Z,12.53
2018-06-22T06:06:31.151Z,12.50
2018-06-22T06:07:31.147Z,12.50
2018-06-22T06:08:31.136Z,12.49
2018-06-22T06:09:31.130Z,12.49
2018-06-22T06:10:31.127Z,12.46
2018-06-22T06:11:31.103Z,12.56
2018-06-22T06:12:31.104Z,12.59
2018-06-22T06:13:31.074Z,12.62
2018-06-22T06:14:31.076Z,12.57
2018-06-22T06:15:31.069Z,12.60
2018-06-22T06:16:31.051Z,12.64
2018-06-22T06:17:31.040Z,12.70
2018-06-22T06:18:31.022Z,12.67
2018-06-22T06:19:31.014Z,12.65
2018-06-22T06:20:31.023Z,12.71
2018-06-22T06:21:30.991Z,12.68
2018-06-22T06:22:30.989Z,12.70
2018-06-22T06:23:30.972Z,12.71
2018-06-22T06:24:30.962Z,12.70
2018-06-22T06:25:30.951Z,12.74
2018-06-22T06:26:30.947Z,12.68
2018-06-22T06:27:30.924Z,12.72
2018-06-22T06:28:30.917Z,12.70
2018-06-22T06:29:30.911Z,12.68
2018-06-22T06:30:30.893Z,12.74
2018-06-22T06:31:30.881Z,12.74
2018-06-22T06:32:30.879Z,12.82
2018-06-22T06:33:30.854Z,12.79
2018-06-22T06:34:30.852Z,12.75
2018-06-22T06:35:30.840Z,12.77
2018-06-22T06:36:30.836Z,12.77
2018-06-22T06:37:30.827Z,12.83
2018-06-22T06:38:30.805Z,12.85
2018-06-22T06:39:30.786Z,12.92
2018-06-22T06:40:30.779Z,12.92
2018-06-22T06:41:30.767Z,12.93
2018-06-22T06:42:30.772Z,12.96
2018-06-22T06:43:30.753Z,12.96
2018-06-22T06:44:30.745Z,13.03
2018-06-22T06:45:30.723Z,13.04
2018-06-22T06:46:30.717Z,13.07
2018-06-22T06:47:30.725Z,13.04
2018-06-22T06:48:30.699Z,13.08
2018-06-22T06:49:30.731Z,13.12
2018-06-22T06:50:30.690Z,13.10
2018-06-22T06:51:30.656Z,13.17
2018-06-22T06:52:30.645Z,13.15
2018-06-22T06:53:30.655Z,13.30
2018-06-22T06:54:30.636Z,13.29
2018-06-22T06:55:30.620Z,13.33
2018-06-22T06:56:30.614Z,13.54
2018-06-22T06:57:30.599Z,13.41
2018-06-22T06:58:30.582Z,13.36
2018-06-22T06:59:30.581Z,13.32
2018-06-22T07:00:30.566Z,13.30
2018-06-22T07:01:30.552Z,13.29
2018-06-22T07:02:30.546Z,13.14
2018-06-22T07:03:30.526Z,13.20
2018-06-22T07:04:30.526Z,13.15
2018-06-22T07:05:30.507Z,13.30
2018-06-22T07:06:30.499Z,13.23
2018-06-22T07:07:30.489Z,13.33
2018-06-22T07:08:30.480Z,13.41
2018-06-22T07:09:30.480Z,13.51
2018-06-22T07:10:30.452Z,13.44
2018-06-22T07:11:30.443Z,13.59
2018-06-22T07:12:30.429Z,13.59
2018-06-22T07:13:30.417Z,13.66
2018-06-22T07:14:30.428Z,13.69
2018-06-22T07:15:30.406Z,13.64
2018-06-22T07:16:30.381Z,13.59
2018-06-22T07:17:30.375Z,13.59
2018-06-22T07:18:30.367Z,13.51
2018-06-22T07:19:30.358Z,13.49
2018-06-22T07:20:30.368Z,13.52
2018-06-22T07:21:30.335Z,13.44
2018-06-22T07:22:30.319Z,13.45
2018-06-22T07:23:30.394Z,13.32
2018-06-22T07:24:30.294Z,13.28
2018-06-22T07:25:30.289Z,13.36
2018-06-22T07:26:30.291Z,13.14
2018-06-22T07:27:30.273Z,13.17
2018-06-22T07:28:30.262Z,13.08
2018-06-22T07:29:30.246Z,13.10
2018-06-22T07:30:30.263Z,13.20
2018-06-22T07:31:30.238Z,13.19
2018-06-22T07:32:30.216Z,13.28
2018-06-22T07:33:30.203Z,13.29
2018-06-22T07:34:30.191Z,13.46
2018-06-22T07:35:30.175Z,13.46
2018-06-22T07:36:30.164Z,13.55
2018-06-22T07:37:30.166Z,13.41
2018-06-22T07:38:30.147Z,13.39
2018-06-22T07:39:30.142Z,13.51
2018-06-22T07:40:30.130Z,13.55
2018-06-22T07:41:30.115Z,13.38
2018-06-22T07:42:30.117Z,13.46
2018-06-22T07:43:30.091Z,13.51
2018-06-22T07:44:30.076Z,13.46
2018-06-22T07:45:30.067Z,13.48
2018-06-22T07:46:30.069Z,13.41
2018-06-22T07:47:30.052Z,13.51
2018-06-22T07:48:30.044Z,13.57
2018-06-22T07:49:30.032Z,13.44
2018-06-22T07:50:30.015Z,13.46
2018-06-22T07:51:30.010Z,13.52
2018-06-22T07:52:29.997Z,13.54
2018-06-22T07:53:30.000Z,13.49
2018-06-22T07:54:29.972Z,13.44
2018-06-22T07:55:29.957Z,13.64
2018-06-22T07:56:29.949Z,13.46
2018-06-22T07:57:29.941Z,13.42
2018-06-22T07:58:29.929Z,13.39
2018-06-22T07:59:29.932Z,13.41
2018-06-22T08:00:29.911Z,13.41
2018-06-22T08:01:29.900Z,13.54
2018-06-22T08:02:29.884Z,13.49
2018-06-22T08:03:29.869Z,13.49
2018-06-22T08:04:29.883Z,13.41
2018-06-22T08:05:29.851Z,13.52
2018-06-22T08:06:29.837Z,13.75
2018-06-22T08:07:29.825Z,13.99
2018-06-22T08:08:29.818Z,14.06
2018-06-22T08:09:29.804Z,14.21
2018-06-22T08:10:29.813Z,14.33
2018-06-22T08:11:29.788Z,14.47
2018-06-22T08:12:29.777Z,14.37
2018-06-22T08:13:29.764Z,14.46
2018-06-22T08:14:29.751Z,14.50
2018-06-22T08:15:29.735Z,14.57
2018-06-22T08:16:29.736Z,14.51
2018-06-22T08:17:29.723Z,14.47
2018-06-22T08:18:29.711Z,14.50
2018-06-22T08:19:29.709Z,14.52
2018-06-22T08:20:29.681Z,14.46
2018-06-22T08:21:29.690Z,14.45
2018-06-22T08:22:29.670Z,14.39
2018-06-22T08:23:29.677Z,14.27
2018-06-22T08:24:29.646Z,14.24
2018-06-22T08:25:29.632Z,14.17
2018-06-22T08:26:29.620Z,14.25
2018-06-22T08:27:29.622Z,14.28
2018-06-22T08:28:29.596Z,14.32
2018-06-22T08:29:29.589Z,14.43
2018-06-22T08:30:29.579Z,14.36
2018-06-22T08:31:29.579Z,14.28
2018-06-22T08:32:29.574Z,14.27
2018-06-22T08:33:29.549Z,14.36
2018-06-22T08:34:29.535Z,14.39
2018-06-22T08:35:29.516Z,14.36
2018-06-22T08:36:29.517Z,14.43
2018-06-22T08:37:29.508Z,14.57
2018-06-22T08:38:29.500Z,14.68
2018-06-22T08:39:29.475Z,15.39
2018-06-22T08:40:29.463Z,16.48
2018-06-22T08:41:29.500Z,16.98
2018-06-22T08:42:29.452Z,16.83
2018-06-22T08:43:29.451Z,16.73
2018-06-22T08:44:29.428Z,16.64
2018-06-22T08:45:29.414Z,17.00
2018-06-22T08:46:29.402Z,17.18
2018-06-22T08:47:29.387Z,16.86
2018-06-22T08:48:29.393Z,16.58
2018-06-22T08:49:29.368Z,16.46
2018-06-22T08:50:29.361Z,16.43
2018-06-22T08:51:29.360Z,16.45
2018-06-22T08:52:29.332Z,16.25
2018-06-22T08:53:29.335Z,16.23
2018-06-22T08:54:29.317Z,16.35
2018-06-22T08:55:29.309Z,16.52
2018-06-22T08:56:29.295Z,16.57
2018-06-22T08:57:29.286Z,16.61
2018-06-22T08:58:29.285Z,16.46
2018-06-22T08:59:29.264Z,16.34
2018-06-22T09:00:29.248Z,16.35
2018-06-22T09:01:29.236Z,16.34
2018-06-22T09:02:29.232Z,16.38
2018-06-22T09:03:29.241Z,16.08
2018-06-22T09:04:29.210Z,16.07
2018-06-22T09:05:29.196Z,16.05
2018-06-22T09:06:29.183Z,15.96
2018-06-22T09:07:29.167Z,15.93
2018-06-22T09:08:29.164Z,15.97
2018-06-22T09:09:29.161Z,16.05
2018-06-22T09:10:29.140Z,16.20
2018-06-22T09:11:29.124Z,16.30
2018-06-22T09:12:29.154Z,16.48
2018-06-22T09:13:29.103Z,16.58
2018-06-22T09:14:29.171Z,16.53
2018-06-22T09:15:29.085Z,16.68
2018-06-22T09:16:29.074Z,16.52
2018-06-22T09:17:29.062Z,16.67
2018-06-22T09:18:29.048Z,16.96
2018-06-22T09:19:29.034Z,17.86
2018-06-22T09:20:29.037Z,18.78
2018-06-22T09:21:29.014Z,18.69
2018-06-22T09:22:29.008Z,18.70
2018-06-22T09:23:29.000Z,18.69
2018-06-22T09:24:28.984Z,18.39
2018-06-22T09:25:28.974Z,18.30
2018-06-22T09:26:28.977Z,18.20
2018-06-22T09:27:28.956Z,17.95
2018-06-22T09:28:28.947Z,17.77
2018-06-22T09:29:28.935Z,17.77
2018-06-22T09:30:28.921Z,17.70
2018-06-22T09:31:28.924Z,17.52
2018-06-22T09:32:28.894Z,17.51
2018-06-22T09:33:28.886Z,17.38
2018-06-22T09:34:28.876Z,17.44
2018-06-22T09:35:28.873Z,17.46
2018-06-22T09:36:28.905Z,17.41
2018-06-22T09:37:28.860Z,17.15
2018-06-22T09:38:28.829Z,17.00
2018-06-22T09:39:28.817Z,16.76
2018-06-22T09:40:28.813Z,16.60
2018-06-22T09:41:28.800Z,16.21
2018-06-22T09:42:28.807Z,16.11
2018-06-22T09:43:28.784Z,16.04
2018-06-22T09:44:28.765Z,16.28
2018-06-22T09:45:28.751Z,16.82
2018-06-22T09:46:28.754Z,17.14
2018-06-22T09:47:28.739Z,17.59
2018-06-22T09:48:28.741Z,17.72
2018-06-22T09:49:28.713Z,17.58
2018-06-22T09:50:28.702Z,17.33
2018-06-22T09:51:28.688Z,17.23
2018-06-22T09:52:28.673Z,17.16
2018-06-22T09:53:28.686Z,17.26
2018-06-22T09:54:28.663Z,17.34
2018-06-22T09:55:28.649Z,17.38
2018-06-22T09:56:28.630Z,17.33
2018-06-22T09:57:28.621Z,17.37
2018-06-22T09:58:28.617Z,17.14
2018-06-22T09:59:28.617Z,17.01
2018-06-22T10:00:28.593Z,16.94
2018-06-22T10:01:28.580Z,16.91
2018-06-22T10:02:28.568Z,16.82
2018-06-22T10:03:28.553Z,16.67
2018-06-22T10:04:28.554Z,16.53
2018-06-22T10:05:28.535Z,16.48
2018-06-22T10:06:28.526Z,16.24
2018-06-22T10:07:28.519Z,16.24
2018-06-22T10:08:28.508Z,16.14
2018-06-22T10:09:28.511Z,16.20
2018-06-22T10:10:28.479Z,16.07
2018-06-22T10:11:28.488Z,16.20
2018-06-22T10:12:28.466Z,16.04
2018-06-22T10:13:28.450Z,16.15
2018-06-22T10:14:28.436Z,16.12
2018-06-22T10:15:28.438Z,16.25
2018-06-22T10:16:28.413Z,16.17
2018-06-22T10:17:28.437Z,16.21
2018-06-22T10:18:28.434Z,16.14
2018-06-22T10:19:28.390Z,16.04
2018-06-22T10:20:28.388Z,15.97
2018-06-22T10:21:28.366Z,15.97
2018-06-22T10:22:28.354Z,15.93
2018-06-22T10:23:28.336Z,15.86
2018-06-22T10:24:28.326Z,15.68
2018-06-22T10:25:28.328Z,15.51
2018-06-22T10:26:28.310Z,15.54
2018-06-22T10:27:28.303Z,15.67
2018-06-22T10:28:28.284Z,15.72
2018-06-22T10:29:28.271Z,15.69
2018-06-22T10:30:28.282Z,15.78
2018-06-22T10:31:28.260Z,15.84
2018-06-22T10:32:28.243Z,15.90
2018-06-22T10:33:28.233Z,16.05
2018-06-22T10:34:28.220Z,16.17
2018-06-22T10:35:28.220Z,16.07
2018-06-22T10:36:28.192Z,15.93
2018-06-22T10:37:28.188Z,16.00
2018-06-22T10:38:28.176Z,15.84
2018-06-22T10:39:28.170Z,15.62
2018-06-22T10:40:28.174Z,15.56
2018-06-22T10:41:28.145Z,15.43
2018-06-22T10:42:28.129Z,15.38
2018-06-22T10:43:28.120Z,15.35
2018-06-22T10:44:28.115Z,15.39
2018-06-22T10:45:28.110Z,15.53
2018-06-22T10:46:28.087Z,15.57
2018-06-22T10:47:28.072Z,15.62
2018-06-22T10:48:28.064Z,15.62
2018-06-22T10:49:28.051Z,15.56
2018-06-22T10:50:28.055Z,15.62
2018-06-22T10:51:28.072Z,15.51
2018-06-22T10:52:28.033Z,15.51
2018-06-22T10:53:28.015Z,15.36
2018-06-22T10:54:27.995Z,15.32
2018-06-22T10:55:28.009Z,15.20
2018-06-22T10:56:27.982Z,15.13
2018-06-22T10:57:27.963Z,15.25
2018-06-22T10:58:27.961Z,15.17
2018-06-22T10:59:27.946Z,15.16
2018-06-22T11:00:27.935Z,15.17
2018-06-22T11:01:27.936Z,15.25
2018-06-22T11:02:27.919Z,15.27
2018-06-22T11:03:27.902Z,15.19
2018-06-22T11:04:27.891Z,15.20
2018-06-22T11:05:27.885Z,15.11
2018-06-22T11:06:27.864Z,15.17
2018-06-22T11:07:27.877Z,15.28
2018-06-22T11:08:27.846Z,15.25
2018-06-22T11:09:27.832Z,15.23
2018-06-22T11:10:27.834Z,15.29
2018-06-22T11:11:27.816Z,15.38
2018-06-22T11:12:27.817Z,15.41
2018-06-22T11:13:27.837Z,15.53
2018-06-22T11:14:27.781Z,15.53
2018-06-22T11:15:27.768Z,15.67
2018-06-22T11:16:27.758Z,15.71
2018-06-22T11:17:27.765Z,15.80
2018-06-22T11:18:27.867Z,15.90
2018-06-22T11:19:27.722Z,15.96
2018-06-22T11:20:27.712Z,16.23
2018-06-22T11:21:27.698Z,16.27
2018-06-22T11:22:27.698Z,16.24
2018-06-22T11:23:27.694Z,16.31
2018-06-22T11:24:27.701Z,16.33
2018-06-22T11:25:27.669Z,16.23
2018-06-22T11:26:27.641Z,16.33
2018-06-22T11:27:27.685Z,16.49
2018-06-22T11:28:27.635Z,16.61
2018-06-22T11:29:27.609Z,16.70
2018-06-22T11:30:27.612Z,16.67
2018-06-22T11:31:27.595Z,16.67
2018-06-22T11:32:27.583Z,16.67
2018-06-22T11:33:27.578Z,16.63
2018-06-22T11:34:27.562Z,16.63
2018-06-22T11:35:27.549Z,16.60
2018-06-22T11:36:27.572Z,16.70
2018-06-22T11:37:27.529Z,16.73
2018-06-22T11:38:27.530Z,16.94
2018-06-22T11:39:27.500Z,17.00
2018-06-22T11:40:27.492Z,17.03
2018-06-22T11:41:27.481Z,17.14
2018-06-22T11:42:27.478Z,17.30
2018-06-22T11:43:27.464Z,17.34
2018-06-22T11:44:27.461Z,17.36
2018-06-22T11:45:27.441Z,17.26
2018-06-22T11:46:27.425Z,17.31
2018-06-22T11:47:27.416Z,17.25
2018-06-22T11:48:27.408Z,17.23
2018-06-22T11:49:27.409Z,17.19
2018-06-22T11:50:27.383Z,17.23
2018-06-22T11:51:27.391Z,17.08
2018-06-22T11:52:27.361Z,17.11
2018-06-22T11:53:27.360Z,16.98
2018-06-22T11:54:27.363Z,16.89
2018-06-22T11:55:27.333Z,16.93
2018-06-22T11:56:27.324Z,16.67
2018-06-22T11:57:27.313Z,16.61
2018-06-22T11:58:27.296Z,16.53
2018-06-22T11:59:27.291Z,16.58
2018-06-22T12:00:27.288Z,16.57
2018-06-22T12:01:27.267Z,16.58
2018-06-22T12:02:27.264Z,16.48
2018-06-22T12:03:27.246Z,16.49
2018-06-22T12:04:27.239Z,16.43
2018-06-22T12:05:27.235Z,16.34
2018-06-22T12:06:27.330Z,16.27
2018-06-22T12:07:27.201Z,16.33
2018-06-22T12:08:27.192Z,16.33
2018-06-22T12:09:27.182Z,16.38
2018-06-22T12:10:27.161Z,16.45
2018-06-22T12:11:27.189Z,16.46
2018-06-22T12:12:27.141Z,16.35
2018-06-22T12:13:27.129Z,16.35
2018-06-22T12:14:27.128Z,16.39
2018-06-22T12:15:27.113Z,16.52
2018-06-22T12:16:27.113Z,16.60
2018-06-22T12:17:27.093Z,16.73
2018-06-22T12:18:27.078Z,16.67
2018-06-22T12:19:27.134Z,16.68
2018-06-22T12:20:27.059Z,16.67
2018-06-22T12:21:27.061Z,16.70
2018-06-22T12:22:27.031Z,16.81
2018-06-22T12:23:27.024Z,16.86
2018-06-22T12:24:27.011Z,17.01
2018-06-22T12:25:27.002Z,16.89
2018-06-22T12:26:27.016Z,17.00
2018-06-22T12:27:26.981Z,17.06
2018-06-22T12:28:26.971Z,17.12
2018-06-22T12:29:26.961Z,17.14
2018-06-22T12:30:26.943Z,17.16
2018-06-22T12:31:26.934Z,17.12
2018-06-22T12:32:26.937Z,17.07
2018-06-22T12:33:26.909Z,16.86
2018-06-22T12:34:26.907Z,16.73
2018-06-22T12:35:26.896Z,16.71
2018-06-22T12:36:26.879Z,16.56
2018-06-22T12:37:26.881Z,16.50
2018-06-22T12:38:26.866Z,16.38
2018-06-22T12:39:26.849Z,16.27
2018-06-22T12:40:26.839Z,16.20
2018-06-22T12:41:26.841Z,16.07
2018-06-22T12:42:26.831Z,15.89
2018-06-22T12:43:26.821Z,15.82
2018-06-22T12:44:26.799Z,15.83
2018-06-22T12:45:26.782Z,15.74
2018-06-22T12:46:26.775Z,15.76
2018-06-22T12:47:26.780Z,15.80
2018-06-22T12:48:26.758Z,15.80
2018-06-22T12:49:26.747Z,15.87
2018-06-22T12:50:26.736Z,15.96
2018-06-22T12:51:26.717Z,16.11
2018-06-22T12:52:26.707Z,16.30
2018-06-22T12:53:26.717Z,16.33
2018-06-22T12:54:26.685Z,16.46
2018-06-22T12:55:26.678Z,16.52